Time;durP1;ratioP1;P1;durP2;ratioP2;P2;SDS_P1;SDS_P2;PMS_P1;PMS_P2;Temp;Humidity;BMP_temperature;BMP_pressure;BME280_temperature;BME280_humidity;BME280_pressure;Samples;Min_cycle;Max_cycle;Signal;HPM_P1;HPM_P2
2020/12/06 00:04:27;;;;;;;13.65;7.68;;;;;;;0.75;87.19;99990.56;10398128;28;20083;-77
2020/12/06 00:09:28;;;;;;;11.60;7.80;;;;;;;0.86;87.34;100006.22;10401051;28;20512;-77
2020/12/06 00:14:28;;;;;;;15.95;8.25;;;;;;;0.86;87.24;100027.50;10400418;28;20138;-76
2020/12/06 00:19:29;;;;;;;15.95;8.75;;;;;;;0.25;87.29;99940.47;10399127;28;20056;-76
2020/12/06 00:24:29;;;;;;;11.65;7.32;;;;;;;0.23;87.84;99942.66;10388954;28;20518;-76
2020/12/06 00:29:29;;;;;;;16.20;8.85;;;;;;;0.68;87.99;100027.47;10385215;28;20044;-78
2020/12/06 00:34:30;;;;;;;13.20;8.20;;;;;;;0.66;88.49;100040.34;10382569;28;20549;-77
2020/12/06 00:39:30;;;;;;;10.80;7.63;;;;;;;0.19;88.50;99963.78;10399636;28;20041;-76
2020/12/06 00:44:31;;;;;;;12.45;8.07;;;;;;;0.50;88.43;100012.63;10403368;28;20048;-76
2020/12/06 00:49:32;;;;;;;12.57;8.48;;;;;;;-0.38;88.44;99896.59;10404695;28;20477;-76
2020/12/06 00:54:33;;;;;;;12.52;8.23;;;;;;;0.52;88.77;100029.03;10394561;28;20056;-76
2020/12/06 00:59:33;;;;;;;12.55;8.32;;;;;;;0.48;88.49;100038.75;10391959;28;20186;-77
2020/12/06 01:04:33;;;;;;;12.15;8.07;;;;;;;0.23;88.90;100011.78;10402090;28;20049;-75
2020/12/06 01:09:36;;;;;;;13.75;8.43;;;;;;;0.33;89.12;100032.78;10403524;28;20053;-76
2020/12/06 01:14:37;;;;;;;13.93;8.40;;;;;;;-0.37;89.27;99911.47;10381801;28;20049;-76
2020/12/06 01:19:37;;;;;;;13.63;8.93;;;;;;;0.32;89.32;100030.41;10398699;28;20516;-76
2020/12/06 01:24:38;;;;;;;11.30;7.95;;;;;;;0.30;89.73;100022.75;10375152;28;20045;-75
2020/12/06 01:29:38;;;;;;;16.63;8.98;;;;;;;-0.38;89.63;99931.13;10397841;28;20044;-76
2020/12/06 01:34:39;;;;;;;13.52;9.52;;;;;;;0.19;89.78;100048.06;10387390;28;20071;-79
2020/12/06 01:39:39;;;;;;;13.68;9.05;;;;;;;-0.28;89.69;99986.66;10404247;28;20095;-75
2020/12/06 01:44:39;;;;;;;15.75;9.15;;;;;;;0.06;89.79;100043.63;10380430;28;20148;-77
2020/12/06 01:49:40;;;;;;;13.10;8.38;;;;;;;-0.15;90.23;100022.91;10401985;28;20045;-76
2020/12/06 01:54:40;;;;;;;13.40;9.35;;;;;;;-0.18;90.58;100023.53;10387104;28;20041;-75
2020/12/06 01:59:41;;;;;;;14.73;10.07;;;;;;;-0.13;90.18;100052.63;10393916;28;20068;-75
2020/12/06 02:04:46;;;;;;;12.85;9.40;;;;;;;-0.31;90.41;100035.81;10397725;28;20057;-79
2020/12/06 02:09:47;;;;;;;16.30;10.18;;;;;;;-0.20;89.93;100072.75;10380897;28;20136;-76
2020/12/06 02:14:47;;;;;;;14.25;9.43;;;;;;;-0.32;90.76;100075.97;10395309;28;20044;-76
2020/12/06 02:19:48;;;;;;;15.20;9.95;;;;;;;-0.30;90.43;100084.44;10357910;28;20056;-76
2020/12/06 02:24:48;;;;;;;16.27;10.80;;;;;;;-0.49;90.88;100077.44;10393423;28;20040;-74
2020/12/06 02:29:48;;;;;;;14.35;10.02;;;;;;;-0.90;91.47;100014.72;10395122;28;20405;-76
2020/12/06 02:34:49;;;;;;;14.23;9.85;;;;;;;-0.69;91.03;100035.47;10395165;28;20430;-77
2020/12/06 02:39:52;;;;;;;16.70;10.60;;;;;;;-1.01;91.62;99986.88;10382338;28;20038;-76
2020/12/06 02:44:53;;;;;;;16.83;10.43;;;;;;;-0.91;92.27;99991.94;10395060;28;20049;-80
2020/12/06 02:49:53;;;;;;;16.67;10.88;;;;;;;-0.46;92.03;100060.91;10403424;28;20041;-79
2020/12/06 02:54:54;;;;;;;15.10;10.38;;;;;;;-0.56;91.65;100045.22;10400356;28;20041;-79
2020/12/06 02:59:54;;;;;;;14.57;10.57;;;;;;;-0.48;92.48;100051.66;10400261;28;20791;-76
2020/12/06 03:04:55;;;;;;;15.75;10.43;;;;;;;-0.50;92.27;100049.31;10394261;28;20057;-76
2020/12/06 03:09:55;;;;;;;16.75;9.98;;;;;;;-0.75;92.36;100016.22;10368367;28;20079;-75
2020/12/06 03:14:56;;;;;;;19.48;11.40;;;;;;;-0.56;92.35;100071.78;10397295;28;20045;-77
2020/12/06 03:19:56;;;;;;;16.05;11.25;;;;;;;-0.59;92.02;100056.44;10404998;28;20048;-79
2020/12/06 03:24:56;;;;;;;17.67;10.93;;;;;;;-0.62;93.19;100065.00;10387713;28;20466;-77
2020/12/06 03:29:57;;;;;;;16.13;10.95;;;;;;;-1.39;92.46;99938.69;10394246;28;20482;-75
2020/12/06 03:34:57;;;;;;;15.00;10.85;;;;;;;-1.55;92.20;99925.03;10401587;28;20053;-76
2020/12/06 03:39:58;;;;;;;14.77;10.45;;;;;;;-0.94;92.17;100008.47;10386639;28;20042;-75
2020/12/06 03:44:58;;;;;;;17.20;11.60;;;;;;;-1.25;93.20;99975.78;10399637;28;20121;-75
2020/12/06 03:49:59;;;;;;;18.38;12.15;;;;;;;-1.01;93.90;100013.41;10382527;28;20050;-77
2020/12/06 03:54:59;;;;;;;17.75;12.32;;;;;;;-1.13;94.48;99989.28;10382315;28;20045;-77
2020/12/06 03:59:59;;;;;;;19.80;14.05;;;;;;;-0.72;94.33;100057.31;10378766;28;20056;-80
2020/12/06 04:05:00;;;;;;;22.55;13.25;;;;;;;-1.06;94.81;100000.25;10402469;28;20072;-78
2020/12/06 04:10:00;;;;;;;20.63;13.15;;;;;;;-0.88;94.68;100033.78;10399121;28;20049;-76
2020/12/06 04:15:01;;;;;;;19.50;13.27;;;;;;;-0.94;95.34;100024.38;10402398;28;20405;-76
2020/12/06 04:20:03;;;;;;;19.77;12.95;;;;;;;-1.19;94.89;100011.72;10399969;28;20810;-76
2020/12/06 04:25:04;;;;;;;22.10;14.50;;;;;;;-1.34;95.21;99979.16;10402186;28;20048;-76
2020/12/06 04:30:04;;;;;;;20.50;14.43;;;;;;;-1.00;95.20;100038.84;10367420;28;20055;-75
2020/12/06 04:35:04;;;;;;;23.40;15.48;;;;;;;-1.22;95.55;99991.06;10401982;28;20046;-78
2020/12/06 04:40:05;;;;;;;24.15;16.80;;;;;;;-1.46;95.27;99960.31;10383694;28;20043;-75
2020/12/06 04:45:05;;;;;;;27.90;15.90;;;;;;;-0.82;94.81;100068.16;10398830;28;20056;-74
2020/12/06 04:50:09;;;;;;;27.00;17.92;;;;;;;-1.28;95.40;99993.84;10375014;28;20098;-75
2020/12/06 04:55:13;;;;;;;22.98;15.82;;;;;;;-0.81;96.13;100069.72;10404967;28;20069;-76
2020/12/06 05:00:13;;;;;;;29.33;18.55;;;;;;;-0.82;95.30;100073.44;10365500;28;20056;-75
2020/12/06 05:05:14;;;;;;;27.23;18.33;;;;;;;-0.82;96.15;100068.16;10378490;28;20061;-76
2020/12/06 05:10:14;;;;;;;27.15;18.42;;;;;;;-0.83;95.43;100066.59;10380563;28;20054;-76
2020/12/06 05:15:15;;;;;;;29.48;18.88;;;;;;;-1.25;95.61;100018.19;10399526;28;20506;-77
2020/12/06 05:20:15;;;;;;;26.80;18.15;;;;;;;-0.84;95.31;100078.31;10397873;28;20046;-78
2020/12/06 05:25:16;;;;;;;29.02;18.30;;;;;;;-0.91;95.98;100092.75;10398731;28;20106;-77
2020/12/06 05:30:17;;;;;;;29.92;18.90;;;;;;;-0.86;96.42;100089.97;10389407;28;20098;-79
2020/12/06 05:35:18;;;;;;;27.88;18.25;;;;;;;-0.97;96.01;100078.03;10382325;28;20077;-77
2020/12/06 05:40:19;;;;;;;34.10;19.75;;;;;;;-0.91;95.79;100076.84;10381148;28;20562;-78
2020/12/06 05:45:19;;;;;;;28.00;19.20;;;;;;;-0.82;95.97;100084.06;10392532;28;20046;-80
2020/12/06 05:50:20;;;;;;;28.92;17.95;;;;;;;-1.36;96.01;100013.13;10376255;28;20052;-76
2020/12/06 05:55:21;;;;;;;34.25;20.77;;;;;;;-0.98;97.07;100070.38;10384246;28;20053;-77
2020/12/06 06:00:22;;;;;;;34.00;21.00;;;;;;;-1.12;96.66;100046.56;10379200;28;20087;-76
2020/12/06 06:05:23;;;;;;;31.58;20.35;;;;;;;-1.22;96.93;100030.84;10373397;28;20520;-76
2020/12/06 06:10:30;;;;;;;38.22;23.00;;;;;;;-0.80;97.02;100108.44;10394793;28;20045;-76
2020/12/06 06:15:30;;;;;;;37.95;22.38;;;;;;;-0.86;97.20;100084.69;10399141;28;20106;-75
2020/12/06 06:20:31;;;;;;;32.22;20.65;;;;;;;-0.81;96.68;100086.44;10384107;28;20033;-75
2020/12/06 06:25:32;;;;;;;34.20;21.55;;;;;;;-1.22;96.72;100033.50;10388417;28;20091;-76
2020/12/06 06:30:32;;;;;;;36.38;22.42;;;;;;;-1.31;97.46;100026.28;10363575;28;20103;-77
2020/12/06 06:35:33;;;;;;;33.63;21.55;;;;;;;-0.92;96.40;100091.19;10398999;28;20108;-76
2020/12/06 06:40:33;;;;;;;33.17;21.33;;;;;;;-1.05;97.19;100086.72;10397772;28;20049;-77
2020/12/06 06:45:44;;;;;;;34.78;22.05;;;;;;;-0.79;97.50;100121.41;10406145;28;20052;-78
2020/12/06 06:50:48;;;;;;;35.22;21.33;;;;;;;-0.76;97.37;100109.41;10396889;28;20534;-75
2020/12/06 06:55:52;;;;;;;37.55;21.92;;;;;;;-0.80;97.46;100095.16;10411319;28;20157;-78
2020/12/06 07:01:19;;;;;;;34.50;21.10;;;;;;;-0.73;96.80;100100.84;10370689;28;20041;-77
2020/12/06 07:06:42;;;;;;;36.78;21.77;;;;;;;-0.69;97.88;100104.47;10386127;28;20081;-77
2020/12/06 07:11:43;;;;;;;37.30;23.30;;;;;;;-0.88;97.38;100076.22;10373872;28;20037;-77
2020/12/06 07:16:43;;;;;;;38.72;23.63;;;;;;;-1.08;98.11;100044.88;10406733;28;20525;-77
2020/12/06 07:21:46;;;;;;;38.35;22.40;;;;;;;-0.66;97.40;100111.81;10386951;28;20052;-77
2020/12/06 07:26:47;;;;;;;38.92;24.20;;;;;;;-0.96;97.52;100057.59;10408709;28;20040;-76
2020/12/06 07:31:50;;;;;;;34.67;22.75;;;;;;;-0.61;98.17;100111.72;10388497;28;20033;-79
2020/12/06 07:36:51;;;;;;;42.28;24.40;;;;;;;-0.61;98.24;100114.38;10394118;28;20408;-79
2020/12/06 07:41:51;;;;;;;37.05;24.02;;;;;;;-0.55;97.42;100115.03;10370437;28;20053;-78
2020/12/06 07:47:01;;;;;;;40.60;24.83;;;;;;;-0.65;98.11;100105.44;10407608;28;20086;-79
2020/12/06 07:52:34;;;;;;;39.50;23.35;;;;;;;-0.47;97.91;100125.72;10405396;28;20115;-77
2020/12/06 07:57:40;;;;;;;40.72;23.35;;;;;;;-0.45;97.80;100123.56;10371338;28;20048;-80
2020/12/06 08:02:43;;;;;;;38.50;24.05;;;;;;;-0.38;98.67;100122.31;10398414;28;20044;-79
2020/12/06 08:07:46;;;;;;;40.45;24.58;;;;;;;-0.67;98.12;100065.13;10397052;28;20068;-79
2020/12/06 08:12:49;;;;;;;39.53;24.10;;;;;;;-0.60;98.58;100070.81;10387312;28;20041;-76
2020/12/06 08:17:50;;;;;;;39.65;23.67;;;;;;;-0.20;98.02;100126.66;10397654;28;20098;-76
2020/12/06 08:22:51;;;;;;;36.55;23.83;;;;;;;-0.12;98.22;100133.09;10383277;28;20049;-77
2020/12/06 08:27:52;;;;;;;36.92;23.80;;;;;;;-0.06;98.40;100143.31;10403268;28;20038;-77
2020/12/06 08:33:01;;;;;;;42.22;23.70;;;;;;;-0.02;98.56;100122.22;10397977;28;20405;-77
2020/12/06 08:38:15;;;;;;;35.03;22.83;;;;;;;-0.41;98.05;100048.59;10392687;28;20058;-78
2020/12/06 08:43:16;;;;;;;39.63;24.38;;;;;;;0.07;98.24;100104.47;10385302;28;20074;-77
2020/12/06 08:48:28;;;;;;;38.53;23.73;;;;;;;0.30;97.43;100134.38;10396922;28;20103;-79
2020/12/06 08:53:44;;;;;;;;;;;;;;;0.38;97.58;100124.91;10396957;28;20522;-77
2020/12/06 08:58:45;;;;;;;35.38;22.52;;;;;;;0.02;97.72;100032.03;10384788;28;19924;-79
2020/12/06 09:03:45;;;;;;;39.50;23.00;;;;;;;0.54;97.30;100106.63;10387350;28;20049;-79
2020/12/06 09:08:46;;;;;;;36.10;22.77;;;;;;;0.68;97.13;100107.28;10398399;28;20039;-75
2020/12/06 09:13:46;;;;;;;34.03;22.88;;;;;;;0.87;96.76;100103.56;10377016;28;20146;-75
2020/12/06 09:18:47;;;;;;;29.73;21.40;;;;;;;0.56;96.69;100029.97;10371084;28;20116;-75
2020/12/06 09:23:48;;;;;;;33.63;21.75;;;;;;;0.73;95.15;100019.38;10369800;28;20487;-75
2020/12/06 09:28:48;;;;;;;35.75;20.75;;;;;;;1.14;94.63;100060.66;10397156;28;20050;-74
2020/12/06 09:33:49;;;;;;;29.80;19.52;;;;;;;1.48;93.65;100101.66;10396463;28;20042;-76
2020/12/06 09:38:49;;;;;;;28.60;18.90;;;;;;;1.66;93.42;100103.19;10380695;28;20080;-74
2020/12/06 09:43:50;;;;;;;26.90;18.70;;;;;;;1.80;93.28;100118.22;10392814;28;20044;-74
2020/12/06 09:48:50;;;;;;;26.95;18.70;;;;;;;1.48;92.27;100029.75;10390705;28;20069;-74
2020/12/06 09:53:50;;;;;;;30.73;20.60;;;;;;;1.64;91.13;100036.13;10377982;28;20049;-73
2020/12/06 09:58:51;;;;;;;31.05;18.00;;;;;;;1.95;91.18;100053.72;10378212;28;20521;-74
2020/12/06 10:03:52;;;;;;;27.45;19.02;;;;;;;2.03;90.45;100026.28;10393043;28;20418;-75
2020/12/06 10:08:53;;;;;;;23.13;16.55;;;;;;;2.54;89.55;100050.31;10372847;28;20521;-74
2020/12/06 10:13:54;;;;;;;25.00;17.02;;;;;;;2.30;88.61;99986.91;10381272;28;20088;-75
2020/12/06 10:18:56;;;;;;;23.83;16.02;;;;;;;2.68;88.57;100023.34;10390154;28;20040;-73
2020/12/06 10:23:57;;;;;;;23.20;15.40;;;;;;;3.24;86.44;100082.56;10391202;28;20786;-75
2020/12/06 10:28:58;;;;;;;22.10;14.95;;;;;;;3.13;87.13;100082.22;10392633;28;20034;-78
2020/12/06 10:34:01;;;;;;;25.30;15.63;;;;;;;2.66;87.04;100030.94;10397304;28;20049;-78
2020/12/06 10:39:02;;;;;;;24.80;15.05;;;;;;;2.89;87.40;100034.84;10394944;28;20037;-78
2020/12/06 10:44:02;;;;;;;25.08;17.27;;;;;;;2.69;87.58;100014.25;10378788;28;20495;-77
2020/12/06 10:49:03;;;;;;;25.60;17.00;;;;;;;3.10;87.72;100077.50;10377865;28;20106;-77
2020/12/06 10:54:03;;;;;;;23.33;16.48;;;;;;;3.02;88.07;100048.22;10370236;28;20049;-77
2020/12/06 10:59:04;;;;;;;22.02;14.93;;;;;;;3.23;87.87;100070.34;10375235;28;20045;-78
2020/12/06 11:04:06;;;;;;;22.02;15.20;;;;;;;2.92;87.23;100001.34;10390915;28;20061;-77
2020/12/06 11:09:08;;;;;;;21.77;15.25;;;;;;;3.00;86.21;99992.47;10392162;28;20186;-78
2020/12/06 11:14:09;;;;;;;20.10;15.03;;;;;;;3.62;85.50;100054.84;10392566;28;20152;-78
2020/12/06 11:19:09;;;;;;;21.50;15.95;;;;;;;3.30;85.07;100006.47;10368806;28;20049;-79
2020/12/06 11:24:13;;;;;;;21.27;15.13;;;;;;;3.55;85.88;100065.31;10393622;28;20593;-80
2020/12/06 11:29:15;;;;;;;22.63;15.35;;;;;;;3.23;85.55;100006.25;10385803;28;20578;-74
2020/12/06 11:34:16;;;;;;;25.13;15.25;;;;;;;3.79;85.20;100092.13;10396356;28;20103;-74
2020/12/06 11:39:16;;;;;;;21.52;15.30;;;;;;;3.42;84.60;100034.34;10407311;28;20065;-75
2020/12/06 11:44:17;;;;;;;22.98;15.63;;;;;;;3.79;84.87;100110.06;10402487;28;20041;-73
2020/12/06 11:49:17;;;;;;;21.60;14.77;;;;;;;3.58;85.12;100059.31;10402379;28;20044;-73
2020/12/06 11:54:18;;;;;;;21.80;16.20;;;;;;;3.80;84.47;100099.00;10403440;28;20046;-73
2020/12/06 11:59:21;;;;;;;23.35;16.55;;;;;;;3.75;84.72;100080.50;10393844;28;20045;-75
2020/12/06 12:04:23;;;;;;;24.30;16.70;;;;;;;3.73;84.87;100084.63;10385263;28;20606;-76
2020/12/06 12:09:23;;;;;;;33.05;18.92;;;;;;;3.54;84.87;100042.38;10405315;28;20049;-77
2020/12/06 12:14:24;;;;;;;29.55;19.42;;;;;;;3.80;84.31;100093.66;10404368;28;20069;-76
2020/12/06 12:19:24;;;;;;;21.42;15.27;;;;;;;3.66;84.88;100050.41;10383113;28;20038;-76
2020/12/06 12:24:25;;;;;;;22.10;15.38;;;;;;;3.56;83.71;100045.50;10403239;28;20068;-75
2020/12/06 12:29:26;;;;;;;23.20;15.60;;;;;;;3.58;84.60;100037.94;10406172;28;20091;-77
2020/12/06 12:34:26;;;;;;;24.23;17.77;;;;;;;3.48;84.92;100011.63;10369331;28;20840;-76
2020/12/06 12:39:29;;;;;;;25.50;16.90;;;;;;;3.78;84.71;100069.16;10384519;28;20117;-76
2020/12/06 12:44:30;;;;;;;24.38;16.02;;;;;;;3.78;85.28;100079.84;10395865;28;20041;-76
2020/12/06 12:49:31;;;;;;;21.85;16.38;;;;;;;3.28;85.38;100024.72;10345087;28;20046;-76
2020/12/06 12:54:32;;;;;;;24.40;17.42;;;;;;;3.31;85.78;100040.09;10381564;28;20135;-75
2020/12/06 12:59:33;;;;;;;24.15;16.30;;;;;;;3.27;85.83;100033.88;10393880;28;20401;-76
2020/12/06 13:04:33;;;;;;;25.58;18.38;;;;;;;3.63;85.64;100099.19;10378358;28;20056;-76
2020/12/06 13:09:34;;;;;;;26.88;18.88;;;;;;;3.55;86.55;100081.34;10384872;28;20052;-76
2020/12/06 13:14:34;;;;;;;25.83;17.92;;;;;;;3.37;86.49;100060.16;10380362;28;20050;-74
2020/12/06 13:19:35;;;;;;;28.20;19.08;;;;;;;3.42;87.37;100077.09;10394592;28;20041;-75
2020/12/06 13:24:35;;;;;;;26.92;18.05;;;;;;;3.48;87.59;100070.41;10392382;28;20671;-74
2020/12/06 13:29:35;;;;;;;27.35;18.30;;;;;;;3.55;86.58;100081.34;10401529;28;20063;-75
2020/12/06 13:34:36;;;;;;;24.75;18.05;;;;;;;3.31;86.99;100072.13;10376070;28;20038;-75
2020/12/06 13:39:36;;;;;;;28.42;19.33;;;;;;;3.41;87.61;100075.50;10394610;28;20621;-75
2020/12/06 13:44:37;;;;;;;27.17;18.65;;;;;;;3.01;87.25;100025.28;10399110;28;20056;-75
2020/12/06 13:49:41;;;;;;;29.45;19.85;;;;;;;3.35;87.55;100078.41;10381410;28;20045;-74
2020/12/06 13:54:41;;;;;;;27.83;18.92;;;;;;;3.29;87.63;100061.03;10394803;28;20182;-75
2020/12/06 13:59:41;;;;;;;26.70;19.13;;;;;;;3.45;86.96;100065.75;10395988;28;20040;-74
2020/12/06 14:04:42;;;;;;;38.22;22.52;;;;;;;3.39;87.23;100073.19;10385297;28;20506;-76
2020/12/06 14:09:42;;;;;;;35.58;22.25;;;;;;;3.38;86.82;100077.72;10385700;28;20049;-74
2020/12/06 14:14:43;;;;;;;36.88;23.60;;;;;;;2.89;87.18;100018.81;10382908;28;20050;-74
2020/12/06 14:19:43;;;;;;;31.63;20.67;;;;;;;3.14;87.05;100064.28;10380467;28;20037;-74
2020/12/06 14:24:44;;;;;;;28.67;19.80;;;;;;;3.23;88.17;100081.03;10360852;28;20155;-75
2020/12/06 14:29:44;;;;;;;34.42;20.33;;;;;;;3.12;88.68;100075.28;10379559;28;20625;-74
2020/12/06 14:34:45;;;;;;;29.23;20.42;;;;;;;2.73;89.19;100005.28;10356924;28;20128;-75
2020/12/06 14:39:45;;;;;;;33.13;21.63;;;;;;;3.17;89.11;100072.44;10373554;28;20041;-77
2020/12/06 14:44:46;;;;;;;27.75;20.23;;;;;;;2.79;88.78;100008.50;10374886;28;20044;-75
2020/12/06 14:49:46;;;;;;;32.40;21.85;;;;;;;2.85;88.40;100003.78;10381819;28;20037;-75
2020/12/06 14:54:47;;;;;;;27.55;18.92;;;;;;;3.21;87.92;100051.19;10394824;28;20048;-75
2020/12/06 14:59:47;;;;;;;36.05;22.73;;;;;;;2.71;88.12;99977.34;10399834;28;20053;-76
2020/12/06 15:04:48;;;;;;;31.70;20.95;;;;;;;3.17;88.18;100050.28;10405819;28;20088;-75
2020/12/06 15:09:48;;;;;;;34.53;21.52;;;;;;;2.75;87.58;99996.91;10393657;28;20041;-79
2020/12/06 15:14:49;;;;;;;31.40;21.50;;;;;;;2.77;88.24;100010.72;10401979;28;20037;-75
2020/12/06 15:19:49;;;;;;;38.83;24.42;;;;;;;2.84;88.97;100037.69;10399583;28;20638;-76
2020/12/06 15:24:50;;;;;;;40.33;25.85;;;;;;;2.76;89.76;100046.53;10399702;28;20037;-75
2020/12/06 15:29:50;;;;;;;50.45;27.08;;;;;;;2.31;89.94;99999.16;10397907;28;20373;-74
2020/12/06 15:34:51;;;;;;;40.17;26.70;;;;;;;2.68;89.88;100050.03;10395603;28;20653;-74
2020/12/06 15:39:51;;;;;;;39.28;26.27;;;;;;;2.38;90.82;100026.09;10384193;28;20049;-75
2020/12/06 15:44:52;;;;;;;38.47;24.60;;;;;;;2.47;90.56;100056.16;10386506;28;20045;-74
2020/12/06 15:49:52;;;;;;;40.13;25.13;;;;;;;2.40;91.36;100050.56;10385798;28;20042;-75
2020/12/06 15:54:53;;;;;;;46.58;28.67;;;;;;;2.22;91.85;100022.41;10380721;28;20104;-74
2020/12/06 15:59:53;;;;;;;52.90;32.15;;;;;;;2.23;91.95;100023.97;10389123;28;20045;-75
2020/12/06 16:04:54;;;;;;;47.03;28.40;;;;;;;1.55;93.01;99910.19;10388517;28;20114;-74
2020/12/06 16:09:54;;;;;;;45.67;28.00;;;;;;;2.24;92.83;100022.88;10394791;28;20175;-78
2020/12/06 16:14:55;;;;;;;41.65;27.13;;;;;;;2.09;93.64;100003.66;10401536;28;20687;-74
2020/12/06 16:19:55;;;;;;;42.55;27.67;;;;;;;2.13;93.31;100008.34;10381529;28;20055;-74
2020/12/06 16:24:56;;;;;;;42.60;28.20;;;;;;;2.28;94.04;100037.09;10382355;28;20058;-74
2020/12/06 16:29:56;;;;;;;43.17;27.65;;;;;;;1.84;94.29;99969.94;10363296;28;20030;-74
2020/12/06 16:34:56;;;;;;;38.33;26.38;;;;;;;1.66;94.55;99964.66;10363030;28;20287;-74
2020/12/06 16:39:57;;;;;;;45.50;26.92;;;;;;;1.83;94.38;100016.31;10368474;28;20510;-75
2020/12/06 16:44:57;;;;;;;46.75;28.80;;;;;;;1.76;94.37;100016.03;10375235;28;20034;-74
2020/12/06 16:49:58;;;;;;;47.88;29.20;;;;;;;1.75;95.33;100025.16;10395080;28;20597;-76
2020/12/06 16:54:58;;;;;;;49.53;29.88;;;;;;;2.10;95.46;100095.88;10395375;28;20621;-74
2020/12/06 16:59:59;;;;;;;47.88;30.27;;;;;;;1.64;95.42;100020.16;10367603;28;20605;-75
2020/12/06 17:04:59;;;;;;;47.40;29.85;;;;;;;2.17;95.31;100105.25;10402221;28;20049;-72
2020/12/06 17:10:01;;;;;;;46.38;29.48;;;;;;;1.90;95.52;100075.22;10399443;28;20052;-76
2020/12/06 17:15:03;;;;;;;46.55;29.08;;;;;;;1.78;95.86;100043.16;10394902;28;20052;-74
2020/12/06 17:20:04;;;;;;;42.55;28.60;;;;;;;1.66;96.36;100028.59;10398214;28;20289;-76
2020/12/06 17:25:05;;;;;;;44.35;28.05;;;;;;;1.80;95.71;100075.59;10397172;28;20025;-74
2020/12/06 17:30:05;;;;;;;45.55;29.58;;;;;;;2.03;96.44;100084.13;10395330;28;20549;-74
2020/12/06 17:35:05;;;;;;;47.42;29.60;;;;;;;2.03;96.65;100084.13;10368288;28;20037;-81
2020/12/06 17:40:06;;;;;;;46.38;29.40;;;;;;;2.09;96.44;100106.84;10379722;28;20042;-76
2020/12/06 17:45:07;;;;;;;47.35;28.95;;;;;;;2.20;96.69;100109.94;10385342;28;20044;-78
2020/12/06 17:50:07;;;;;;;48.13;29.98;;;;;;;2.13;97.02;100099.00;10375498;28;20294;-77
2020/12/06 17:55:08;;;;;;;47.50;29.90;;;;;;;2.09;96.52;100083.66;10385668;28;20132;-76
2020/12/06 18:00:08;;;;;;;46.65;28.15;;;;;;;1.82;96.36;100030.75;10386743;28;20119;-79
2020/12/06 18:05:09;;;;;;;45.35;28.00;;;;;;;2.09;96.98;100051.66;10396974;28;20083;-76
2020/12/06 18:10:09;;;;;;;43.58;28.60;;;;;;;2.26;96.22;100071.34;10392454;28;20038;-78
2020/12/06 18:15:10;;;;;;;46.90;28.75;;;;;;;2.28;96.48;100074.44;10401882;28;20532;-76
2020/12/06 18:20:10;;;;;;;43.45;27.50;;;;;;;2.25;96.43;100053.75;10388657;28;20792;-78
2020/12/06 18:25:10;;;;;;;45.80;30.40;;;;;;;1.83;96.47;99989.66;10398550;28;20886;-78
2020/12/06 18:30:11;;;;;;;45.83;29.38;;;;;;;1.84;96.67;100001.91;10396587;28;20046;-76
2020/12/06 18:35:11;;;;;;;49.97;30.88;;;;;;;2.22;96.70;100070.41;10407646;28;20463;-77
2020/12/06 18:40:12;;;;;;;47.80;31.52;;;;;;;2.10;95.77;100069.22;10395576;28;20095;-78
2020/12/06 18:45:12;;;;;;;49.25;30.30;;;;;;;2.02;95.84;100067.38;10382740;28;20069;-76
2020/12/06 18:50:13;;;;;;;50.78;30.27;;;;;;;1.84;96.29;100049.88;10379424;28;20040;-82
2020/12/06 18:55:14;;;;;;;49.13;30.30;;;;;;;1.63;96.26;100034.56;10383729;28;20053;-80
2020/12/06 19:00:16;;;;;;;49.63;30.65;;;;;;;1.57;96.48;100019.84;10386647;28;20056;-79
2020/12/06 19:05:20;;;;;;;50.42;32.42;;;;;;;1.85;96.32;100056.75;10376552;28;20080;-79
2020/12/06 19:10:20;;;;;;;53.17;32.88;;;;;;;1.86;96.49;100042.34;10398963;28;20461;-75
2020/12/06 19:15:20;;;;;;;53.17;33.17;;;;;;;1.82;96.29;100042.19;10380297;28;20055;-76
2020/12/06 19:20:22;;;;;;;55.28;34.60;;;;;;;1.37;97.82;99961.97;10380679;28;20098;-75
2020/12/06 19:25:22;;;;;;;56.65;32.42;;;;;;;1.73;97.13;100022.00;10391896;28;20053;-74
2020/12/06 19:30:23;;;;;;;50.72;32.08;;;;;;;1.63;96.99;100029.25;10363778;28;20099;-77
2020/12/06 19:35:24;;;;;;;53.70;32.63;;;;;;;0.84;96.24;99940.78;10382609;28;20049;-76
2020/12/06 19:40:24;;;;;;;62.35;36.22;;;;;;;1.37;97.10;100020.56;10383886;28;20097;-77
2020/12/06 19:45:25;;;;;;;64.45;38.40;;;;;;;1.09;97.91;99988.97;10388353;28;20065;-76
2020/12/06 19:50:28;;;;;;;60.83;36.65;;;;;;;0.98;98.18;99966.44;10408778;28;20036;-77
2020/12/06 19:55:29;;;;;;;66.78;37.30;;;;;;;1.22;98.79;100019.97;10399222;28;20041;-76
2020/12/06 20:00:29;;;;;;;60.13;36.80;;;;;;;1.32;98.93;100034.00;10383740;28;20254;-76
2020/12/06 20:05:30;;;;;;;61.53;36.97;;;;;;;1.29;98.77;100024.00;10404864;28;20061;-76
2020/12/06 20:10:30;;;;;;;64.97;36.10;;;;;;;1.20;98.83;100011.50;10384082;28;20041;-75
2020/12/06 20:15:31;;;;;;;64.70;37.22;;;;;;;1.00;98.83;99969.56;10397044;28;20045;-76
2020/12/06 20:20:31;;;;;;;64.43;39.33;;;;;;;1.21;99.56;99996.31;10400812;28;20041;-80
2020/12/06 20:25:32;;;;;;;63.78;37.33;;;;;;;1.43;99.29;100024.59;10387734;28;20096;-80
2020/12/06 20:30:34;;;;;;;61.78;36.60;;;;;;;1.33;99.24;99987.66;10376971;28;20657;-77
2020/12/06 20:35:34;;;;;;;62.10;35.65;;;;;;;1.37;99.37;99988.59;10378207;28;20113;-78
2020/12/06 20:40:35;;;;;;;72.15;41.25;;;;;;;0.97;98.91;99922.31;10378571;28;20119;-78
2020/12/06 20:45:36;;;;;;;73.25;40.83;;;;;;;1.62;99.49;100010.91;10384796;28;20036;-80
2020/12/06 20:50:36;;;;;;;70.18;40.85;;;;;;;1.62;99.29;100001.06;10381495;28;20619;-76
2020/12/06 20:55:37;;;;;;;71.00;39.85;;;;;;;1.68;99.20;100010.41;10393363;28;20095;-77
2020/12/06 21:00:41;;;;;;;78.03;44.63;;;;;;;1.72;99.32;100004.44;10379675;28;20034;-76
2020/12/06 21:05:42;;;;;;;78.80;44.00;;;;;;;1.40;99.26;99961.31;10379045;28;20053;-75
2020/12/06 21:10:42;;;;;;;71.03;42.33;;;;;;;1.33;99.42;99945.06;10382452;28;20679;-77
2020/12/06 21:15:43;;;;;;;72.35;41.13;;;;;;;1.69;99.46;99985.34;10395024;28;20048;-78
2020/12/06 21:20:44;;;;;;;76.97;43.63;;;;;;;1.72;98.84;99993.78;10377471;28;20505;-78
2020/12/06 21:25:44;;;;;;;77.03;44.72;;;;;;;1.86;100.00;100021.03;10379225;28;20045;-76
2020/12/06 21:30:46;;;;;;;68.47;39.25;;;;;;;1.89;100.00;100001.72;10396745;28;20490;-79
2020/12/06 21:35:46;;;;;;;73.57;39.92;;;;;;;1.87;100.00;99986.03;10396627;28;20056;-77
2020/12/06 21:40:47;;;;;;;67.43;41.47;;;;;;;1.68;100.00;99970.47;10396392;28;20045;-75
2020/12/06 21:45:47;;;;;;;65.15;38.67;;;;;;;1.71;99.30;99981.56;10391191;28;20049;-75
2020/12/06 21:50:48;;;;;;;64.80;37.58;;;;;;;1.58;99.40;99952.19;10369191;28;20360;-75
2020/12/06 21:55:48;;;;;;;69.47;40.22;;;;;;;1.18;99.09;99885.13;10380582;28;20045;-75
2020/12/06 22:00:49;;;;;;;68.18;39.72;;;;;;;0.86;99.01;99841.25;10396042;28;20579;-76
2020/12/06 22:05:49;;;;;;;65.43;37.47;;;;;;;1.69;99.51;99953.38;10396402;28;20140;-75
2020/12/06 22:10:50;;;;;;;67.85;39.35;;;;;;;1.35;99.32;99894.94;10396602;28;20448;-75
2020/12/06 22:15:50;;;;;;;67.18;39.35;;;;;;;1.33;99.31;99902.47;10417475;28;20349;-75
2020/12/06 22:20:51;;;;;;;63.22;37.85;;;;;;;1.55;99.52;99936.81;10402892;28;20064;-75
2020/12/06 22:25:52;;;;;;;70.28;39.33;;;;;;;1.35;99.20;99910.91;10385805;28;20128;-75
2020/12/06 22:30:52;;;;;;;64.38;36.88;;;;;;;1.36;99.40;99917.78;10391277;28;20053;-75
2020/12/06 22:35:53;;;;;;;60.72;34.97;;;;;;;1.56;99.56;99949.03;10412927;28;20079;-75
2020/12/06 22:40:53;;;;;;;65.22;37.13;;;;;;;1.22;99.75;99894.84;10395625;28;20049;-75
2020/12/06 22:45:56;;;;;;;62.92;36.38;;;;;;;1.69;100.00;99953.38;10399361;28;21098;-75
2020/12/06 22:50:57;;;;;;;64.57;36.38;;;;;;;1.23;100.00;99888.41;10403871;28;20133;-75